• Join FlightAware (Why Join?)
  • Login
  • US Flag 
12:29AM EDT


 

Airport Tracker/Info


-or-


 

Live Flight TrackerFlight Track Log ✈ N77VZ ✈ 10-Oct-2013 ✈ KSVH - KAPF

Flight Track Log - Related Links

Times and Time Zones

All times are in EDT time to prevent confusion due to time zone crossing. See the N77VZ flight status page for this flight to view local times or setup timezone preferences in your user account.

Time Position Orientation Groundspeed Altitude Reporting Facility
EDT Latitude Longitude Course Direction KTS MPH feet Rate Location/Type
09:19AM 35.6781 -80.9019 310° West 319 367 30,000  Level Atlanta Center
09:20AM 35.7800 -81.0517 310° West 282 325 4,100 -11,400 Descending Atlanta Center
09:21AM 35.8050 -81.1378 290° West 272 313 7,300 2,940 Climbing Atlanta Center
09:22AM 35.8214 -81.2217 284° West 260 299 10,000 2,400 Climbing Atlanta Center
09:23AM 35.7772 -81.2872 230° Southwest 394 453 12,100 1,920 Climbing Atlanta Center
09:24AM 35.6961 -81.3053 190° South 369 425 13,900 1,740 Climbing Atlanta Center
09:25AM 35.6089 -81.3261 191° South 325 374 15,600 1,800 Climbing Atlanta Center
09:26AM 35.5194 -81.3392 187° South 320 368 17,500 1,740 Climbing Atlanta Center
09:27AM 35.4344 -81.3547 188° South 320 368 19,100 1,500 Climbing Atlanta Center
09:28AM 35.3472 -81.3728 190° South 316 364 20,600 1,440 Climbing Atlanta Center
09:29AM 35.2578 -81.3883 188° South 322 371 22,000 1,440 Climbing Atlanta Center
09:30AM 35.1664 -81.4067 189° South 328 377 23,500 1,500 Climbing Atlanta Center
09:31AM 35.0789 -81.4194 187° South 329 379 25,100 1,500 Climbing Atlanta Center
09:32AM 34.9875 -81.4378 189° South 334 384 26,600 1,440 Climbing Atlanta Center
09:33AM 34.8897 -81.4533 187° South 334 384 28,000 420 Climbing Atlanta Center
09:35AM 34.6778 -81.4964 189° South 365 420 28,000  Level Jacksonville Center
09:36AM 34.5694 -81.5158 188° South 383 441 28,000  Level Jacksonville Center
09:37AM 34.4781 -81.5300 187° South 383 441 28,000  Level Jacksonville Center
09:38AM 34.3697 -81.5467 187° South 390 449 28,000  Level Jacksonville Center
09:39AM 34.2633 -81.5683 190° South 390 449 28,000  Level Jacksonville Center
09:40AM 34.1550 -81.5850 187° South 390 449 28,000  Level Jacksonville Center
09:41AM 34.0489 -81.6044 189° South 390 449 28,000  Level Jacksonville Center
09:42AM 33.9386 -81.6233 188° South 390 449 28,000  Level Jacksonville Center
09:43AM 33.8322 -81.6425 189° South 390 449 28,000  Level Jacksonville Center
09:44AM 33.7261 -81.6614 188° South 390 449 28,000  Level Jacksonville Center
09:45AM 33.6156 -81.6806 188° South 390 449 28,000  Level Jacksonville Center
09:46AM 33.5072 -81.6994 188° South 395 455 28,000  Level Jacksonville Center
09:47AM 33.3989 -81.7208 189° South 395 455 28,000  Level Jacksonville Center
09:48AM 33.2886 -81.7372 187° South 395 455 28,000  Level Jacksonville Center
09:49AM 33.1803 -81.7583 189° South 400 460 28,000  Level Jacksonville Center
09:50AM 33.0697 -81.7772 188° South 400 460 28,000  Level Jacksonville Center
09:51AM 32.9489 -81.7958 187° South 408 470 28,000  Level Jacksonville Center
09:52AM 32.8383 -81.8194 190° South 408 470 28,000  Level Jacksonville Center
09:53AM 32.7300 -81.8356 187° South 408 470 28,000  Level Jacksonville Center
09:54AM 32.6217 -81.8592 190° South 408 470 28,000  Level Jacksonville Center
09:55AM 32.5214 -81.8750 188° South 408 470 28,000  Level Jacksonville Center
09:56AM 32.4006 -81.8961 188° South 408 470 28,000  Level Jacksonville Center
09:57AM 32.3006 -81.9119 188° South 408 470 28,000  Level Jacksonville Center
09:58AM 32.1817 -81.9328 188° South 408 470 28,000  Level Jacksonville Center
09:59AM 32.0711 -81.9511 188° South 408 470 28,000  Level Jacksonville Center
10:00AM 31.9731 -81.9669 188° South 403 464 28,000  Level Jacksonville Center
10:01AM 31.8522 -81.9778 184° South 409 471 28,000  Level Jacksonville Center
10:02AM 31.7436 -81.9886 185° South 403 464 28,000  Level Jacksonville Center
10:03AM 31.6311 -81.9994 185° South 397 457 28,000  Level Jacksonville Center
10:04AM 31.5225 -82.0103 185° South 402 463 28,000  Level Jacksonville Center
10:05AM 31.4119 -82.0236 186° South 402 463 28,000  Level Jacksonville Center
10:06AM 31.3014 -82.0319 184° South 407 468 28,000  Level Jacksonville Center
10:07AM 31.1928 -82.0425 185° South 407 468 28,000  Level Jacksonville Center
10:08AM 31.0800 -82.0533 185° South 402 463 28,000  Level Jacksonville Center
10:09AM 30.9694 -82.0639 185° South 402 463 28,000  Level Jacksonville Center
10:10AM 30.8589 -82.0722 184° South 402 463 28,000  Level Jacksonville Center
10:11AM 30.7483 -82.0828 185° South 402 463 28,000  Level Jacksonville Center
10:12AM 30.6378 -82.0933 185° South 402 463 28,000  Level Jacksonville Center
10:13AM 30.5397 -82.0992 183° South 402 463 28,000  Level Jacksonville Center
10:14AM 30.4269 -82.1097 185° South 402 463 28,000  Level Jacksonville Center
10:15AM 30.3164 -82.1178 184° South 402 463 28,000 -420 Level Jacksonville Center
10:16AM 30.2036 -82.1283 185° South 407 468 27,200 -540 Descending Jacksonville Center
10:17AM 30.0783 -82.1078 172° South 412 474 27,000 -120 Descending Jacksonville Center
10:18AM 29.9781 -82.0917 172° South 412 474 27,000  Level Jacksonville Center
10:19AM 29.8631 -82.0711 171° South 412 474 27,000  Level Jacksonville Center
10:20AM 29.7417 -82.0411 168° South 412 474 27,000  Level Jacksonville Center
10:21AM 29.6414 -82.0300 174° South 407 468 27,000  Level Jacksonville Center
10:22AM 29.5306 -82.0047 169° South 407 468 27,000  Level Jacksonville Center
10:23AM 29.4197 -81.9842 171° South 407 468 27,000  Level Jacksonville Center
10:24AM 29.3092 -81.9592 169° South 407 468 27,000  Level Jacksonville Center
10:26AM 29.0525 -81.9078 170° South 410 472 27,000  Level Miami Center
10:27AM 28.9386 -81.8861 171° South 410 472 27,000  Level Miami Center
10:28AM 28.8161 -81.8639 171° South 410 472 27,000  Level Miami Center
10:29AM 28.7044 -81.8378 168° South 410 472 27,000  Level Miami Center
10:30AM 28.5947 -81.8186 171° South 405 466 27,000  Level Miami Center
10:31AM 28.4853 -81.7878 166° South 410 472 27,000 -60 Level Miami Center
10:32AM 28.3756 -81.7594 167° South 410 472 26,900 -720 Descending Miami Center
10:33AM 28.2600 -81.7261 166° South 415 478 25,600 -1,380 Descending Miami Center
10:34AM 28.1483 -81.6931 165° South 415 478 24,200 -1,500 Descending Miami Center
10:35AM 28.0386 -81.6694 169° South 420 483 22,700 -1,500 Descending Miami Center
10:36AM 27.9372 -81.7003 195° South 382 440 21,300 -1,500 Descending Miami Center
10:37AM 27.8489 -81.7272 195° South 373 429 19,800 -1,500 Descending Miami Center
10:38AM 27.7414 -81.7531 192° South 368 423 18,300 -1,440 Descending Miami Center
10:39AM 27.6472 -81.7653 187° South 352 405 17,000 -660 Descending Miami Center
10:40AM 27.5539 -81.7475 170° South 347 399 17,000  Level Miami Center
10:41AM 27.4739 -81.7064 155° Southeast 341 392 17,000  Level Miami Center
10:42AM 27.3833 -81.6653 158° South 352 405 17,000 -300 Level Miami Center
10:43AM 27.2931 -81.6194 156° South 357 411 16,500 -1,440 Descending Miami Center
10:44AM 27.2047 -81.5761 156° South 352 405 14,200 -2,340 Descending Miami Center
10:45AM 27.1203 -81.5378 158° South 347 399 11,900 -2,100 Descending Miami Center
10:46AM 27.0361 -81.4994 158° South 341 392 10,000 -960 Descending Miami Center
10:47AM 26.9519 -81.4542 154° Southeast 318 366 10,000  Level Miami Center
10:48AM 26.8697 -81.4136 156° South 313 360 10,000  Level Miami Center
10:49AM 26.7914 -81.3825 160° South 313 360 10,000 -420 Level Miami Center
10:50AM 26.7075 -81.3933 187° South 291 335 9,200 -900 Descending Miami Center
10:51AM 26.6322 -81.3975 183° South 291 335 8,200 -600 Descending Miami Center
10:52AM 26.5550 -81.3992 181° South 291 335 8,000 -120 Descending Miami Center
10:53AM 26.4875 -81.4150 192° South 291 335 8,000 -300 Level Miami Center
10:54AM 26.4158 -81.4425 199° South 279 321 7,500 -840 Descending Miami Center
10:55AM 26.3439 -81.4697 199° South 279 321 6,400 -1,140 Descending Miami Center
10:57AM 26.2468 -81.5732 241° Southwest  Level FlightAware Approximate
11:04AM 26.1500 -81.7667 246° West  Level FlightAware Approximate
11:05AM 26.1524 -81.7756 246° West  Level Estimated
11:06AM 26.1524 -81.7756 246° West  Level Estimated
11:07AM 26.1524 -81.7756 246° West  Level Estimated
11:08AM 26.1524 -81.7756 246° West  Level Estimated
11:09AM 26.1524 -81.7756 246° West  Level Estimated
11:10AM 26.1524 -81.7756 246° West  Level Estimated
11:11AM 26.1524 -81.7756 246° West  Level Estimated
11:12AM 26.1524 -81.7756 246° West  Level Estimated
11:13AM 26.1524 -81.7756 246° West  Level Estimated